sensor_id;sensor_type;location;lat;lon;timestamp;P1;durP1;ratioP1;P2;durP2;ratioP2
5319;SDS011;2682;49.800;9.990;2023-09-12T00:00:54;7.50;;;7.25;;
5319;SDS011;2682;49.800;9.990;2023-09-12T00:03:22;8.75;;;8.75;;
5319;SDS011;2682;49.800;9.990;2023-09-12T00:05:51;8.75;;;8.75;;
5319;SDS011;2682;49.800;9.990;2023-09-12T00:08:18;8.25;;;8.25;;
5319;SDS011;2682;49.800;9.990;2023-09-12T00:10:44;8.75;;;8.00;;
5319;SDS011;2682;49.800;9.990;2023-09-12T00:13:11;7.50;;;7.25;;
5319;SDS011;2682;49.800;9.990;2023-09-12T00:15:37;11.00;;;10.25;;
5319;SDS011;2682;49.800;9.990;2023-09-12T00:18:04;8.75;;;8.00;;
5319;SDS011;2682;49.800;9.990;2023-09-12T00:20:31;9.25;;;8.75;;
5319;SDS011;2682;49.800;9.990;2023-09-12T00:22:58;8.00;;;7.75;;
5319;SDS011;2682;49.800;9.990;2023-09-12T00:25:24;9.00;;;8.50;;
5319;SDS011;2682;49.800;9.990;2023-09-12T00:27:51;8.00;;;7.75;;
5319;SDS011;2682;49.800;9.990;2023-09-12T00:30:17;9.75;;;9.50;;
5319;SDS011;2682;49.800;9.990;2023-09-12T00:32:45;10.00;;;10.00;;
5319;SDS011;2682;49.800;9.990;2023-09-12T00:35:12;9.50;;;8.50;;
5319;SDS011;2682;49.800;9.990;2023-09-12T00:37:39;8.75;;;8.00;;
5319;SDS011;2682;49.800;9.990;2023-09-12T00:40:06;9.00;;;9.00;;
5319;SDS011;2682;49.800;9.990;2023-09-12T00:42:33;10.00;;;9.25;;
5319;SDS011;2682;49.800;9.990;2023-09-12T00:44:59;7.00;;;7.00;;
5319;SDS011;2682;49.800;9.990;2023-09-12T00:47:25;8.25;;;8.00;;
5319;SDS011;2682;49.800;9.990;2023-09-12T00:49:53;9.75;;;9.00;;
5319;SDS011;2682;49.800;9.990;2023-09-12T00:52:19;9.75;;;9.00;;
5319;SDS011;2682;49.800;9.990;2023-09-12T00:54:47;8.50;;;8.25;;
5319;SDS011;2682;49.800;9.990;2023-09-12T00:57:14;8.25;;;7.75;;
5319;SDS011;2682;49.800;9.990;2023-09-12T00:59:40;8.00;;;8.00;;
5319;SDS011;2682;49.800;9.990;2023-09-12T01:02:06;9.00;;;7.75;;
5319;SDS011;2682;49.800;9.990;2023-09-12T01:04:33;8.25;;;8.25;;
5319;SDS011;2682;49.800;9.990;2023-09-12T01:07:00;8.25;;;8.25;;
5319;SDS011;2682;49.800;9.990;2023-09-12T01:09:28;10.00;;;8.75;;
5319;SDS011;2682;49.800;9.990;2023-09-12T01:11:56;8.00;;;7.75;;
5319;SDS011;2682;49.800;9.990;2023-09-12T01:14:22;9.00;;;8.50;;
5319;SDS011;2682;49.800;9.990;2023-09-12T01:16:49;8.00;;;8.00;;
5319;SDS011;2682;49.800;9.990;2023-09-12T01:19:16;8.00;;;8.00;;
5319;SDS011;2682;49.800;9.990;2023-09-12T01:21:56;7.75;;;7.25;;
5319;SDS011;2682;49.800;9.990;2023-09-12T01:27:19;10.75;;;10.25;;
5319;SDS011;2682;49.800;9.990;2023-09-12T01:29:46;10.25;;;9.00;;
5319;SDS011;2682;49.800;9.990;2023-09-12T01:32:15;7.50;;;7.50;;
5319;SDS011;2682;49.800;9.990;2023-09-12T01:34:44;9.50;;;9.00;;
5319;SDS011;2682;49.800;9.990;2023-09-12T01:37:10;8.25;;;7.75;;
5319;SDS011;2682;49.800;9.990;2023-09-12T01:39:37;8.75;;;8.50;;
5319;SDS011;2682;49.800;9.990;2023-09-12T01:42:03;7.75;;;7.50;;
5319;SDS011;2682;49.800;9.990;2023-09-12T01:44:31;9.00;;;7.50;;
5319;SDS011;2682;49.800;9.990;2023-09-12T01:47:00;7.75;;;7.75;;
5319;SDS011;2682;49.800;9.990;2023-09-12T01:49:29;8.50;;;8.25;;
5319;SDS011;2682;49.800;9.990;2023-09-12T01:51:56;8.25;;;7.50;;
5319;SDS011;2682;49.800;9.990;2023-09-12T01:54:24;8.25;;;8.00;;
5319;SDS011;2682;49.800;9.990;2023-09-12T01:56:52;8.00;;;8.00;;
5319;SDS011;2682;49.800;9.990;2023-09-12T01:59:18;8.75;;;8.50;;
5319;SDS011;2682;49.800;9.990;2023-09-12T02:01:46;10.50;;;8.75;;
5319;SDS011;2682;49.800;9.990;2023-09-12T02:04:12;8.75;;;8.00;;
5319;SDS011;2682;49.800;9.990;2023-09-12T02:06:39;8.75;;;8.00;;
5319;SDS011;2682;49.800;9.990;2023-09-12T02:09:05;10.25;;;10.00;;
5319;SDS011;2682;49.800;9.990;2023-09-12T02:11:31;7.50;;;6.75;;
5319;SDS011;2682;49.800;9.990;2023-09-12T02:13:58;8.50;;;8.50;;
5319;SDS011;2682;49.800;9.990;2023-09-12T02:16:24;11.75;;;11.00;;
5319;SDS011;2682;49.800;9.990;2023-09-12T02:18:52;10.50;;;9.25;;
5319;SDS011;2682;49.800;9.990;2023-09-12T02:21:18;10.75;;;8.75;;
5319;SDS011;2682;49.800;9.990;2023-09-12T02:23:45;13.00;;;10.75;;
5319;SDS011;2682;49.800;9.990;2023-09-12T02:26:11;7.50;;;7.50;;
5319;SDS011;2682;49.800;9.990;2023-09-12T02:28:37;10.00;;;8.00;;
5319;SDS011;2682;49.800;9.990;2023-09-12T02:31:05;9.00;;;7.75;;
5319;SDS011;2682;49.800;9.990;2023-09-12T02:33:35;6.75;;;6.50;;
5319;SDS011;2682;49.800;9.990;2023-09-12T02:36:03;8.00;;;7.75;;
5319;SDS011;2682;49.800;9.990;2023-09-12T02:38:30;8.00;;;7.00;;
5319;SDS011;2682;49.800;9.990;2023-09-12T02:40:56;8.00;;;7.50;;
5319;SDS011;2682;49.800;9.990;2023-09-12T02:43:22;10.75;;;9.25;;
5319;SDS011;2682;49.800;9.990;2023-09-12T02:45:49;8.00;;;7.50;;
5319;SDS011;2682;49.800;9.990;2023-09-12T02:48:15;10.25;;;8.50;;
5319;SDS011;2682;49.800;9.990;2023-09-12T02:50:41;8.25;;;7.00;;
5319;SDS011;2682;49.800;9.990;2023-09-12T02:53:09;9.00;;;9.00;;
5319;SDS011;2682;49.800;9.990;2023-09-12T02:55:38;8.50;;;8.50;;
5319;SDS011;2682;49.800;9.990;2023-09-12T02:58:05;11.00;;;11.00;;
5319;SDS011;2682;49.800;9.990;2023-09-12T03:00:31;10.50;;;8.75;;
5319;SDS011;2682;49.800;9.990;2023-09-12T03:02:58;8.25;;;8.25;;
5319;SDS011;2682;49.800;9.990;2023-09-12T03:05:24;9.00;;;8.00;;
5319;SDS011;2682;49.800;9.990;2023-09-12T03:07:51;10.25;;;8.00;;
5319;SDS011;2682;49.800;9.990;2023-09-12T03:10:18;8.50;;;8.00;;
5319;SDS011;2682;49.800;9.990;2023-09-12T03:12:45;8.00;;;8.00;;
5319;SDS011;2682;49.800;9.990;2023-09-12T03:15:11;7.75;;;7.75;;
5319;SDS011;2682;49.800;9.990;2023-09-12T03:17:37;8.25;;;7.75;;
5319;SDS011;2682;49.800;9.990;2023-09-12T03:20:04;10.50;;;10.00;;
5319;SDS011;2682;49.800;9.990;2023-09-12T03:22:32;9.25;;;8.00;;
5319;SDS011;2682;49.800;9.990;2023-09-12T03:25:02;9.25;;;7.50;;
5319;SDS011;2682;49.800;9.990;2023-09-12T03:27:30;8.25;;;7.00;;
5319;SDS011;2682;49.800;9.990;2023-09-12T03:29:57;7.75;;;7.75;;
5319;SDS011;2682;49.800;9.990;2023-09-12T03:32:23;8.00;;;7.75;;
5319;SDS011;2682;49.800;9.990;2023-09-12T03:34:50;8.75;;;8.25;;
5319;SDS011;2682;49.800;9.990;2023-09-12T03:37:16;7.25;;;7.25;;
5319;SDS011;2682;49.800;9.990;2023-09-12T03:39:43;8.00;;;7.50;;
5319;SDS011;2682;49.800;9.990;2023-09-12T03:42:09;10.00;;;8.75;;
5319;SDS011;2682;49.800;9.990;2023-09-12T03:44:37;10.25;;;10.00;;
5319;SDS011;2682;49.800;9.990;2023-09-12T03:47:03;9.00;;;8.00;;
5319;SDS011;2682;49.800;9.990;2023-09-12T03:49:30;10.25;;;10.00;;
5319;SDS011;2682;49.800;9.990;2023-09-12T03:51:56;9.00;;;9.00;;
5319;SDS011;2682;49.800;9.990;2023-09-12T03:54:22;8.50;;;7.75;;
5319;SDS011;2682;49.800;9.990;2023-09-12T03:56:50;10.00;;;7.75;;
5319;SDS011;2682;49.800;9.990;2023-09-12T03:59:16;7.75;;;7.00;;
5319;SDS011;2682;49.800;9.990;2023-09-12T04:01:44;7.75;;;7.75;;
5319;SDS011;2682;49.800;9.990;2023-09-12T04:04:10;8.00;;;7.75;;
5319;SDS011;2682;49.800;9.990;2023-09-12T04:06:36;10.25;;;9.00;;
5319;SDS011;2682;49.800;9.990;2023-09-12T04:09:03;12.00;;;10.75;;
5319;SDS011;2682;49.800;9.990;2023-09-12T04:11:29;11.00;;;10.00;;
5319;SDS011;2682;49.800;9.990;2023-09-12T04:13:55;9.50;;;7.50;;
5319;SDS011;2682;49.800;9.990;2023-09-12T04:16:22;10.00;;;8.50;;
5319;SDS011;2682;49.800;9.990;2023-09-12T04:18:52;10.00;;;8.25;;
5319;SDS011;2682;49.800;9.990;2023-09-12T04:21:18;10.50;;;10.00;;
5319;SDS011;2682;49.800;9.990;2023-09-12T04:23:44;11.50;;;9.75;;
5319;SDS011;2682;49.800;9.990;2023-09-12T04:26:11;11.25;;;10.50;;
5319;SDS011;2682;49.800;9.990;2023-09-12T04:28:37;8.50;;;8.50;;
5319;SDS011;2682;49.800;9.990;2023-09-12T04:31:04;9.50;;;9.50;;
5319;SDS011;2682;49.800;9.990;2023-09-12T04:33:30;10.75;;;8.75;;
5319;SDS011;2682;49.800;9.990;2023-09-12T04:36:00;7.75;;;7.00;;
5319;SDS011;2682;49.800;9.990;2023-09-12T04:38:26;8.75;;;8.00;;
5319;SDS011;2682;49.800;9.990;2023-09-12T04:40:53;9.25;;;8.00;;
5319;SDS011;2682;49.800;9.990;2023-09-12T04:43:20;7.50;;;7.50;;
5319;SDS011;2682;49.800;9.990;2023-09-12T04:45:46;10.00;;;9.25;;
5319;SDS011;2682;49.800;9.990;2023-09-12T04:48:13;10.25;;;8.00;;
5319;SDS011;2682;49.800;9.990;2023-09-12T04:50:40;9.75;;;9.25;;
5319;SDS011;2682;49.800;9.990;2023-09-12T04:53:08;7.25;;;7.00;;
5319;SDS011;2682;49.800;9.990;2023-09-12T04:55:34;11.25;;;9.75;;
5319;SDS011;2682;49.800;9.990;2023-09-12T04:58:01;11.00;;;10.50;;
5319;SDS011;2682;49.800;9.990;2023-09-12T05:00:27;14.75;;;11.25;;
5319;SDS011;2682;49.800;9.990;2023-09-12T05:02:54;8.50;;;8.50;;
5319;SDS011;2682;49.800;9.990;2023-09-12T05:05:20;9.75;;;9.50;;
5319;SDS011;2682;49.800;9.990;2023-09-12T05:07:46;13.75;;;12.75;;
5319;SDS011;2682;49.800;9.990;2023-09-12T05:10:14;8.00;;;8.00;;
5319;SDS011;2682;49.800;9.990;2023-09-12T05:12:41;11.00;;;11.00;;
5319;SDS011;2682;49.800;9.990;2023-09-12T05:15:07;9.50;;;9.50;;
5319;SDS011;2682;49.800;9.990;2023-09-12T05:17:33;10.25;;;9.50;;
5319;SDS011;2682;49.800;9.990;2023-09-12T05:20:00;10.25;;;10.25;;
5319;SDS011;2682;49.800;9.990;2023-09-12T05:22:26;7.75;;;7.75;;
5319;SDS011;2682;49.800;9.990;2023-09-12T05:24:53;9.75;;;9.25;;
5319;SDS011;2682;49.800;9.990;2023-09-12T05:27:21;10.00;;;10.00;;
5319;SDS011;2682;49.800;9.990;2023-09-12T05:29:48;11.00;;;10.50;;
5319;SDS011;2682;49.800;9.990;2023-09-12T05:32:14;10.75;;;10.50;;
5319;SDS011;2682;49.800;9.990;2023-09-12T05:34:41;10.75;;;10.50;;
5319;SDS011;2682;49.800;9.990;2023-09-12T05:37:08;13.25;;;12.75;;
5319;SDS011;2682;49.800;9.990;2023-09-12T05:39:34;9.75;;;9.25;;
5319;SDS011;2682;49.800;9.990;2023-09-12T05:42:00;10.00;;;10.00;;
5319;SDS011;2682;49.800;9.990;2023-09-12T05:44:28;10.75;;;10.75;;
5319;SDS011;2682;49.800;9.990;2023-09-12T05:46:54;13.25;;;12.00;;
5319;SDS011;2682;49.800;9.990;2023-09-12T05:49:21;11.50;;;10.25;;
5319;SDS011;2682;49.800;9.990;2023-09-12T05:51:47;11.25;;;10.75;;
5319;SDS011;2682;49.800;9.990;2023-09-12T05:54:13;12.25;;;11.00;;
5319;SDS011;2682;49.800;9.990;2023-09-12T05:56:40;11.00;;;11.00;;
5319;SDS011;2682;49.800;9.990;2023-09-12T05:59:07;10.00;;;10.00;;
5319;SDS011;2682;49.800;9.990;2023-09-12T06:01:34;9.50;;;9.50;;
5319;SDS011;2682;49.800;9.990;2023-09-12T06:04:01;11.00;;;11.00;;
5319;SDS011;2682;49.800;9.990;2023-09-12T06:06:27;11.25;;;11.00;;
5319;SDS011;2682;49.800;9.990;2023-09-12T06:08:54;10.00;;;9.75;;
5319;SDS011;2682;49.800;9.990;2023-09-12T06:11:20;12.50;;;11.25;;
5319;SDS011;2682;49.800;9.990;2023-09-12T06:13:47;10.75;;;10.25;;
5319;SDS011;2682;49.800;9.990;2023-09-12T06:16:13;10.00;;;8.00;;
5319;SDS011;2682;49.800;9.990;2023-09-12T06:18:41;10.75;;;9.75;;
5319;SDS011;2682;49.800;9.990;2023-09-12T06:21:07;11.25;;;10.25;;
5319;SDS011;2682;49.800;9.990;2023-09-12T06:23:34;11.00;;;11.00;;
5319;SDS011;2682;49.800;9.990;2023-09-12T06:26:00;9.00;;;9.00;;
5319;SDS011;2682;49.800;9.990;2023-09-12T06:28:27;11.75;;;10.75;;
5319;SDS011;2682;49.800;9.990;2023-09-12T06:30:54;12.00;;;11.25;;
5319;SDS011;2682;49.800;9.990;2023-09-12T06:33:20;11.50;;;9.50;;
5319;SDS011;2682;49.800;9.990;2023-09-12T06:35:49;12.00;;;12.00;;
5319;SDS011;2682;49.800;9.990;2023-09-12T06:38:18;10.00;;;9.00;;
5319;SDS011;2682;49.800;9.990;2023-09-12T06:40:44;12.75;;;12.50;;
5319;SDS011;2682;49.800;9.990;2023-09-12T06:43:12;13.50;;;11.00;;
5319;SDS011;2682;49.800;9.990;2023-09-12T06:45:39;12.50;;;12.50;;
5319;SDS011;2682;49.800;9.990;2023-09-12T06:48:06;14.00;;;14.00;;
5319;SDS011;2682;49.800;9.990;2023-09-12T06:50:32;10.50;;;10.00;;
5319;SDS011;2682;49.800;9.990;2023-09-12T06:53:00;11.00;;;10.50;;
5319;SDS011;2682;49.800;9.990;2023-09-12T06:55:27;12.25;;;11.25;;
5319;SDS011;2682;49.800;9.990;2023-09-12T06:57:54;10.25;;;10.00;;
5319;SDS011;2682;49.800;9.990;2023-09-12T07:00:20;11.00;;;10.50;;
5319;SDS011;2682;49.800;9.990;2023-09-12T07:02:46;13.00;;;12.25;;
5319;SDS011;2682;49.800;9.990;2023-09-12T07:05:13;12.00;;;11.50;;
5319;SDS011;2682;49.800;9.990;2023-09-12T07:07:39;11.50;;;11.50;;
5319;SDS011;2682;49.800;9.990;2023-09-12T07:10:07;13.00;;;13.00;;
5319;SDS011;2682;49.800;9.990;2023-09-12T07:12:34;11.75;;;11.50;;
5319;SDS011;2682;49.800;9.990;2023-09-12T07:15:00;13.50;;;13.00;;
5319;SDS011;2682;49.800;9.990;2023-09-12T07:17:27;11.25;;;11.25;;
5319;SDS011;2682;49.800;9.990;2023-09-12T07:19:53;11.75;;;10.75;;
5319;SDS011;2682;49.800;9.990;2023-09-12T07:22:20;14.50;;;13.75;;
5319;SDS011;2682;49.800;9.990;2023-09-12T07:24:46;13.50;;;13.50;;
5319;SDS011;2682;49.800;9.990;2023-09-12T07:27:14;13.00;;;13.00;;
5319;SDS011;2682;49.800;9.990;2023-09-12T07:29:40;13.60;;;13.40;;
5319;SDS011;2682;49.800;9.990;2023-09-12T07:32:07;12.25;;;12.00;;
5319;SDS011;2682;49.800;9.990;2023-09-12T07:34:33;12.50;;;12.50;;
5319;SDS011;2682;49.800;9.990;2023-09-12T07:36:59;13.50;;;13.50;;
5319;SDS011;2682;49.800;9.990;2023-09-12T07:39:26;14.25;;;13.75;;
5319;SDS011;2682;49.800;9.990;2023-09-12T07:41:52;14.25;;;13.50;;
5319;SDS011;2682;49.800;9.990;2023-09-12T07:44:20;13.25;;;12.25;;
5319;SDS011;2682;49.800;9.990;2023-09-12T07:46:46;12.50;;;12.50;;
5319;SDS011;2682;49.800;9.990;2023-09-12T07:49:13;12.25;;;11.25;;
5319;SDS011;2682;49.800;9.990;2023-09-12T07:51:39;15.50;;;12.25;;
5319;SDS011;2682;49.800;9.990;2023-09-12T07:54:05;13.00;;;13.00;;
5319;SDS011;2682;49.800;9.990;2023-09-12T07:56:32;13.00;;;13.00;;
5319;SDS011;2682;49.800;9.990;2023-09-12T07:58:58;13.25;;;12.50;;
5319;SDS011;2682;49.800;9.990;2023-09-12T08:01:26;10.75;;;10.00;;
5319;SDS011;2682;49.800;9.990;2023-09-12T08:03:53;10.50;;;9.75;;
5319;SDS011;2682;49.800;9.990;2023-09-12T08:06:19;11.60;;;11.40;;
5319;SDS011;2682;49.800;9.990;2023-09-12T08:08:46;12.00;;;11.00;;
5319;SDS011;2682;49.800;9.990;2023-09-12T08:11:13;13.80;;;13.00;;
5319;SDS011;2682;49.800;9.990;2023-09-12T08:13:39;12.75;;;11.50;;
5319;SDS011;2682;49.800;9.990;2023-09-12T08:16:05;11.50;;;10.50;;
5319;SDS011;2682;49.800;9.990;2023-09-12T08:18:33;12.60;;;12.40;;
5319;SDS011;2682;49.800;9.990;2023-09-12T08:21:00;13.00;;;12.40;;
5319;SDS011;2682;49.800;9.990;2023-09-12T08:23:27;11.60;;;10.60;;
5319;SDS011;2682;49.800;9.990;2023-09-12T08:25:53;15.20;;;13.00;;
5319;SDS011;2682;49.800;9.990;2023-09-12T08:28:20;15.80;;;13.60;;
5319;SDS011;2682;49.800;9.990;2023-09-12T08:30:46;12.00;;;11.00;;
5319;SDS011;2682;49.800;9.990;2023-09-12T08:33:13;12.20;;;11.60;;
5319;SDS011;2682;49.800;9.990;2023-09-12T08:35:41;12.60;;;12.00;;
5319;SDS011;2682;49.800;9.990;2023-09-12T08:38:08;14.00;;;13.20;;
5319;SDS011;2682;49.800;9.990;2023-09-12T08:40:34;15.40;;;12.80;;
5319;SDS011;2682;49.800;9.990;2023-09-12T08:43:01;11.00;;;11.00;;
5319;SDS011;2682;49.800;9.990;2023-09-12T08:45:28;11.60;;;11.40;;
5319;SDS011;2682;49.800;9.990;2023-09-12T08:47:56;10.80;;;10.80;;
5319;SDS011;2682;49.800;9.990;2023-09-12T08:50:25;10.80;;;10.80;;
5319;SDS011;2682;49.800;9.990;2023-09-12T08:52:57;10.20;;;10.00;;
5319;SDS011;2682;49.800;9.990;2023-09-12T08:55:23;11.80;;;11.00;;
5319;SDS011;2682;49.800;9.990;2023-09-12T08:57:50;10.60;;;10.00;;
5319;SDS011;2682;49.800;9.990;2023-09-12T09:00:17;14.40;;;12.20;;
5319;SDS011;2682;49.800;9.990;2023-09-12T09:02:44;10.80;;;10.40;;
5319;SDS011;2682;49.800;9.990;2023-09-12T09:05:11;11.40;;;10.40;;
5319;SDS011;2682;49.800;9.990;2023-09-12T09:07:38;11.40;;;11.00;;
5319;SDS011;2682;49.800;9.990;2023-09-12T09:10:13;10.40;;;10.00;;
5319;SDS011;2682;49.800;9.990;2023-09-12T09:12:40;11.00;;;10.80;;
5319;SDS011;2682;49.800;9.990;2023-09-12T09:15:25;13.00;;;12.00;;
5319;SDS011;2682;49.800;9.990;2023-09-12T09:17:52;11.80;;;10.60;;
5319;SDS011;2682;49.800;9.990;2023-09-12T09:20:24;11.80;;;11.40;;
5319;SDS011;2682;49.800;9.990;2023-09-12T09:23:01;12.00;;;11.40;;
5319;SDS011;2682;49.800;9.990;2023-09-12T09:25:31;12.00;;;10.80;;
5319;SDS011;2682;49.800;9.990;2023-09-12T09:27:58;10.80;;;10.80;;
5319;SDS011;2682;49.800;9.990;2023-09-12T09:30:40;11.00;;;11.00;;
5319;SDS011;2682;49.800;9.990;2023-09-12T09:33:06;11.00;;;10.60;;
5319;SDS011;2682;49.800;9.990;2023-09-12T09:35:33;12.40;;;10.80;;
5319;SDS011;2682;49.800;9.990;2023-09-12T09:37:59;12.80;;;12.40;;
5319;SDS011;2682;49.800;9.990;2023-09-12T09:40:26;10.60;;;10.00;;
5319;SDS011;2682;49.800;9.990;2023-09-12T09:42:54;10.40;;;10.00;;
5319;SDS011;2682;49.800;9.990;2023-09-12T09:45:21;11.20;;;10.20;;
5319;SDS011;2682;49.800;9.990;2023-09-12T09:47:48;8.20;;;8.20;;
5319;SDS011;2682;49.800;9.990;2023-09-12T09:50:15;10.80;;;9.80;;
5319;SDS011;2682;49.800;9.990;2023-09-12T09:52:42;10.00;;;10.00;;
5319;SDS011;2682;49.800;9.990;2023-09-12T09:55:12;12.20;;;11.40;;
5319;SDS011;2682;49.800;9.990;2023-09-12T09:57:39;12.40;;;10.60;;
5319;SDS011;2682;49.800;9.990;2023-09-12T10:00:07;11.20;;;10.60;;
5319;SDS011;2682;49.800;9.990;2023-09-12T10:02:40;11.20;;;10.40;;
5319;SDS011;2682;49.800;9.990;2023-09-12T10:05:07;12.40;;;11.00;;
5319;SDS011;2682;49.800;9.990;2023-09-12T10:07:35;11.80;;;11.80;;
5319;SDS011;2682;49.800;9.990;2023-09-12T10:10:03;12.60;;;11.60;;
5319;SDS011;2682;49.800;9.990;2023-09-12T10:12:30;12.60;;;12.20;;
5319;SDS011;2682;49.800;9.990;2023-09-12T10:14:57;13.00;;;12.60;;
5319;SDS011;2682;49.800;9.990;2023-09-12T10:17:26;11.20;;;10.00;;
5319;SDS011;2682;49.800;9.990;2023-09-12T10:19:54;12.80;;;11.00;;
5319;SDS011;2682;49.800;9.990;2023-09-12T10:22:23;11.80;;;11.20;;
5319;SDS011;2682;49.800;9.990;2023-09-12T10:24:51;11.20;;;10.80;;
5319;SDS011;2682;49.800;9.990;2023-09-12T10:27:18;14.20;;;14.00;;
5319;SDS011;2682;49.800;9.990;2023-09-12T10:29:45;10.80;;;10.00;;
5319;SDS011;2682;49.800;9.990;2023-09-12T10:32:14;9.80;;;9.20;;
5319;SDS011;2682;49.800;9.990;2023-09-12T10:34:44;10.00;;;10.00;;
5319;SDS011;2682;49.800;9.990;2023-09-12T10:37:12;10.20;;;10.20;;
5319;SDS011;2682;49.800;9.990;2023-09-12T10:39:41;10.00;;;9.80;;
5319;SDS011;2682;49.800;9.990;2023-09-12T10:42:09;10.80;;;10.00;;
5319;SDS011;2682;49.800;9.990;2023-09-12T10:44:37;12.20;;;11.40;;
5319;SDS011;2682;49.800;9.990;2023-09-12T10:47:04;11.00;;;10.20;;
5319;SDS011;2682;49.800;9.990;2023-09-12T10:49:31;9.00;;;9.00;;
5319;SDS011;2682;49.800;9.990;2023-09-12T10:51:59;11.20;;;11.00;;
5319;SDS011;2682;49.800;9.990;2023-09-12T10:54:26;12.00;;;11.60;;
5319;SDS011;2682;49.800;9.990;2023-09-12T10:57:02;10.20;;;9.20;;
5319;SDS011;2682;49.800;9.990;2023-09-12T10:59:28;11.20;;;10.00;;
5319;SDS011;2682;49.800;9.990;2023-09-12T11:02:00;9.20;;;9.20;;
5319;SDS011;2682;49.800;9.990;2023-09-12T11:04:43;9.20;;;9.00;;
5319;SDS011;2682;49.800;9.990;2023-09-12T11:12:48;9.40;;;9.40;;
5319;SDS011;2682;49.800;9.990;2023-09-12T11:15:15;12.00;;;11.40;;
5319;SDS011;2682;49.800;9.990;2023-09-12T11:17:42;10.40;;;10.40;;
5319;SDS011;2682;49.800;9.990;2023-09-12T11:20:09;9.60;;;9.40;;
5319;SDS011;2682;49.800;9.990;2023-09-12T11:22:36;9.80;;;9.80;;
5319;SDS011;2682;49.800;9.990;2023-09-12T11:25:04;11.20;;;10.80;;
5319;SDS011;2682;49.800;9.990;2023-09-12T11:27:32;9.80;;;9.80;;
5319;SDS011;2682;49.800;9.990;2023-09-12T11:30:05;11.00;;;10.80;;
5319;SDS011;2682;49.800;9.990;2023-09-12T11:32:32;12.60;;;11.20;;
5319;SDS011;2682;49.800;9.990;2023-09-12T11:34:59;10.00;;;9.40;;
5319;SDS011;2682;49.800;9.990;2023-09-12T11:37:26;10.80;;;10.00;;
5319;SDS011;2682;49.800;9.990;2023-09-12T11:39:54;12.00;;;11.20;;
5319;SDS011;2682;49.800;9.990;2023-09-12T11:42:22;8.40;;;8.40;;
5319;SDS011;2682;49.800;9.990;2023-09-12T11:44:50;10.40;;;9.80;;
5319;SDS011;2682;49.800;9.990;2023-09-12T11:47:18;11.80;;;11.40;;
5319;SDS011;2682;49.800;9.990;2023-09-12T11:49:45;10.40;;;9.60;;
5319;SDS011;2682;49.800;9.990;2023-09-12T11:52:12;9.80;;;9.00;;
5319;SDS011;2682;49.800;9.990;2023-09-12T11:54:39;7.80;;;7.80;;
5319;SDS011;2682;49.800;9.990;2023-09-12T11:57:07;10.40;;;9.80;;
5319;SDS011;2682;49.800;9.990;2023-09-12T11:59:36;9.40;;;9.40;;
5319;SDS011;2682;49.800;9.990;2023-09-12T12:02:05;12.20;;;11.60;;
5319;SDS011;2682;49.800;9.990;2023-09-12T12:04:33;9.00;;;9.00;;
5319;SDS011;2682;49.800;9.990;2023-09-12T12:07:00;9.20;;;8.40;;
5319;SDS011;2682;49.800;9.990;2023-09-12T12:09:28;7.60;;;7.40;;
5319;SDS011;2682;49.800;9.990;2023-09-12T12:11:54;11.00;;;10.60;;
5319;SDS011;2682;49.800;9.990;2023-09-12T12:14:25;9.80;;;9.60;;
5319;SDS011;2682;49.800;9.990;2023-09-12T12:16:51;8.00;;;8.00;;
5319;SDS011;2682;49.800;9.990;2023-09-12T12:19:18;11.00;;;9.00;;
5319;SDS011;2682;49.800;9.990;2023-09-12T12:21:47;9.80;;;9.60;;
5319;SDS011;2682;49.800;9.990;2023-09-12T12:24:13;8.80;;;8.40;;
5319;SDS011;2682;49.800;9.990;2023-09-12T12:26:40;10.60;;;10.00;;
5319;SDS011;2682;49.800;9.990;2023-09-12T12:29:08;10.60;;;10.40;;
5319;SDS011;2682;49.800;9.990;2023-09-12T12:31:35;8.00;;;7.80;;
5319;SDS011;2682;49.800;9.990;2023-09-12T12:34:01;11.20;;;9.80;;
5319;SDS011;2682;49.800;9.990;2023-09-12T12:36:29;11.20;;;11.00;;
5319;SDS011;2682;49.800;9.990;2023-09-12T12:38:57;9.60;;;8.20;;
5319;SDS011;2682;49.800;9.990;2023-09-12T12:41:23;8.80;;;8.40;;
5319;SDS011;2682;49.800;9.990;2023-09-12T12:43:51;10.80;;;9.80;;
5319;SDS011;2682;49.800;9.990;2023-09-12T12:46:18;11.20;;;10.20;;
5319;SDS011;2682;49.800;9.990;2023-09-12T12:48:44;11.60;;;10.00;;
5319;SDS011;2682;49.800;9.990;2023-09-12T12:51:14;10.60;;;10.60;;
5319;SDS011;2682;49.800;9.990;2023-09-12T12:53:42;11.20;;;10.40;;
5319;SDS011;2682;49.800;9.990;2023-09-12T12:56:10;11.60;;;10.80;;
5319;SDS011;2682;49.800;9.990;2023-09-12T12:58:37;9.40;;;9.40;;
5319;SDS011;2682;49.800;9.990;2023-09-12T13:01:04;9.80;;;9.00;;
5319;SDS011;2682;49.800;9.990;2023-09-12T13:03:30;10.00;;;9.80;;
5319;SDS011;2682;49.800;9.990;2023-09-12T13:05:57;9.80;;;9.80;;
5319;SDS011;2682;49.800;9.990;2023-09-12T13:08:24;9.40;;;9.00;;
5319;SDS011;2682;49.800;9.990;2023-09-12T13:10:50;10.00;;;10.00;;
5319;SDS011;2682;49.800;9.990;2023-09-12T13:13:18;11.00;;;10.60;;
5319;SDS011;2682;49.800;9.990;2023-09-12T13:15:45;9.60;;;8.80;;
5319;SDS011;2682;49.800;9.990;2023-09-12T13:18:11;9.00;;;8.40;;
5319;SDS011;2682;49.800;9.990;2023-09-12T13:20:38;9.80;;;9.40;;
5319;SDS011;2682;49.800;9.990;2023-09-12T13:23:04;10.00;;;10.00;;
5319;SDS011;2682;49.800;9.990;2023-09-12T13:25:30;9.00;;;9.00;;
5319;SDS011;2682;49.800;9.990;2023-09-12T13:27:57;9.20;;;9.00;;
5319;SDS011;2682;49.800;9.990;2023-09-12T13:30:25;9.20;;;9.20;;
5319;SDS011;2682;49.800;9.990;2023-09-12T13:32:51;10.00;;;9.60;;
5319;SDS011;2682;49.800;9.990;2023-09-12T13:35:18;9.00;;;8.40;;
5319;SDS011;2682;49.800;9.990;2023-09-12T13:37:44;9.00;;;9.00;;
5319;SDS011;2682;49.800;9.990;2023-09-12T13:40:10;8.40;;;8.20;;
5319;SDS011;2682;49.800;9.990;2023-09-12T13:42:37;9.00;;;8.60;;
5319;SDS011;2682;49.800;9.990;2023-09-12T13:45:04;8.80;;;8.80;;
5319;SDS011;2682;49.800;9.990;2023-09-12T13:47:32;12.80;;;12.40;;
5319;SDS011;2682;49.800;9.990;2023-09-12T13:49:58;8.40;;;8.40;;
5319;SDS011;2682;49.800;9.990;2023-09-12T13:52:26;8.60;;;8.40;;
5319;SDS011;2682;49.800;9.990;2023-09-12T13:54:52;7.80;;;7.00;;
5319;SDS011;2682;49.800;9.990;2023-09-12T13:57:19;10.20;;;9.40;;
5319;SDS011;2682;49.800;9.990;2023-09-12T13:59:45;9.00;;;9.00;;
5319;SDS011;2682;49.800;9.990;2023-09-12T14:02:11;9.00;;;9.00;;
5319;SDS011;2682;49.800;9.990;2023-09-12T14:04:39;8.60;;;8.20;;
5319;SDS011;2682;49.800;9.990;2023-09-12T14:07:06;9.20;;;9.00;;
5319;SDS011;2682;49.800;9.990;2023-09-12T14:09:32;10.00;;;8.40;;
5319;SDS011;2682;49.800;9.990;2023-09-12T14:11:59;8.60;;;8.60;;
5319;SDS011;2682;49.800;9.990;2023-09-12T14:14:25;7.00;;;7.00;;
5319;SDS011;2682;49.800;9.990;2023-09-12T14:16:51;13.40;;;10.40;;
5319;SDS011;2682;49.800;9.990;2023-09-12T14:19:19;9.60;;;9.40;;
5319;SDS011;2682;49.800;9.990;2023-09-12T14:21:46;9.00;;;9.00;;
5319;SDS011;2682;49.800;9.990;2023-09-12T14:24:13;10.60;;;9.00;;
5319;SDS011;2682;49.800;9.990;2023-09-12T14:26:39;9.00;;;9.00;;
5319;SDS011;2682;49.800;9.990;2023-09-12T14:29:06;10.40;;;9.00;;
5319;SDS011;2682;49.800;9.990;2023-09-12T14:31:32;9.00;;;8.80;;
5319;SDS011;2682;49.800;9.990;2023-09-12T14:34:01;8.60;;;8.60;;
5319;SDS011;2682;49.800;9.990;2023-09-12T14:36:27;8.00;;;8.00;;
5319;SDS011;2682;49.800;9.990;2023-09-12T14:38:55;9.00;;;9.00;;
5319;SDS011;2682;49.800;9.990;2023-09-12T14:41:22;8.80;;;8.00;;
5319;SDS011;2682;49.800;9.990;2023-09-12T14:43:48;10.00;;;10.00;;
5319;SDS011;2682;49.800;9.990;2023-09-12T14:46:14;9.00;;;8.20;;
5319;SDS011;2682;49.800;9.990;2023-09-12T14:48:41;8.80;;;8.40;;
5319;SDS011;2682;49.800;9.990;2023-09-12T14:51:09;9.40;;;9.40;;
5319;SDS011;2682;49.800;9.990;2023-09-12T14:53:36;9.00;;;8.40;;
5319;SDS011;2682;49.800;9.990;2023-09-12T14:56:05;8.40;;;8.40;;
5319;SDS011;2682;49.800;9.990;2023-09-12T14:58:31;10.60;;;9.80;;
5319;SDS011;2682;49.800;9.990;2023-09-12T15:00:58;11.40;;;10.80;;
5319;SDS011;2682;49.800;9.990;2023-09-12T15:03:24;9.40;;;8.60;;
5319;SDS011;2682;49.800;9.990;2023-09-12T15:05:51;9.80;;;9.20;;
5319;SDS011;2682;49.800;9.990;2023-09-12T15:08:17;11.00;;;11.00;;